Terminal Aerodrome Forecast
Issued by NWS Shreveport, LA

Home | Current Version | Previous Version | Text Only | Print | Product List | Glossary On
Versions: 1 2 3 4 5 6 7 8 9 10 11 12 13 14 15 16 17 18 19
953
FTUS44 KSHV 290008 RRA
TAFELD
TAF
KELD 290008Z 2900/2924 VRB05KT P6SM SCT050 BKN090
     FM290800 02002KT 6SM BR BKN050 BKN250
      TEMPO 2910/2912 5SM BR BKN050 BKN250
     FM291500 05006KT P6SM BKN050
     FM292100 05008KT P6SM BKN100=

USA.gov is the U.S. government's official web portal to all federal, state and local government web resources and services.